Atlantic Beach, NC (28512)

2:48 AM EDT on September 03, 2015 (GMT -0400)
Sound View | | Change Station
CLOSE
Current Station
Personal Weather Station
Location: Newport, NC
Elevation: 13 ft
Nearby Weather Stations

Elev 13 ft 34.73 °N, 76.86 °W | Updated 14 minutes ago

Clear
Clear
75.0 °F
Feels Like 77 °F
N
3.7
Wind Variable Wind from NNE

Today
High -- | Low -- °F
--% Chance of Precip.
Yesterday
High -- | Low -- °F
Precip. -- in
6:41 AM 7:31 PM
Waning Gibbous, 73% visible
Pressure 29.97 in
Visibility 10.0 miles
Clouds Few 1900 ft
Mostly Cloudy 4000 ft
Overcast 5000 ft
Heat Index 77 °F
Dew Point 65 °F
Humidity 71%
Rainfall 0.00 in
Snow Depth Not available.
UV 0 out of 12
Pollen 8.10 out of 12
Air Quality Not available.
Flu Activity Not available.
SPECI KMRH 030627Z AUTO 01009G17KT 10SM -RA FEW019 BKN040 OVC050 23/21 A2997 RMK AO2 PK WND 33029/0600 WSHFT 0546 RAB00 P0007 T02280206 TSNO $
Pressure 29.97 in
Visibility 10.0 miles
Clouds Few 1900 ft
Mostly Cloudy 4000 ft
Overcast 5000 ft
Heat Index 77 °F
Dew Point 65 °F
Humidity 71%
Rainfall 0.00 in
Snow Depth Not available.
UV 0 out of 12
Pollen 8.10 out of 12
Air Quality Not available.
Flu Activity Not available.
SPECI KMRH 030627Z AUTO 01009G17KT 10SM -RA FEW019 BKN040 OVC050 23/21 A2997 RMK AO2 PK WND 33029/0600 WSHFT 0546 RAB00 P0007 T02280206 TSNO $

10-Day Weather Forecast

×

Almanac

Astronomy

Sep. 03, 2015 Rise Set
Actual Time
Civil Twilight
Nautical Twilight
Astronomical Twilight
Moon
Length of Visible Light
Length of Day
Tomorrow will be .
, % of the Moon is Illuminated

Today's Extremes

State Highs State Lows

Community

WunderPhotos

Upload Photos

1,851,913 photos uploaded!

WunderBlogs® & News

Nearby

Air Quality

  Air Quality AQ Index Pollutant
Not available.

Snow Depth

Station Depth Elevation

Earthquake Activity

City Distance Mag. Time & Date
Minimum magnitude displayed is 2.5.

Coastal Water Temperatures

Place Temperature

Stations

Nearby Weather Stations

Station Location Temp. Windchill Dew Point Humidity Wind Precip. Elev Updated Type